createdAt,value
2018-07-26T00:00:13.263Z,2.93
2018-07-26T00:02:41.645Z,3.10
2018-07-26T00:05:09.725Z,3.00
2018-07-26T00:07:37.787Z,1.97
2018-07-26T00:10:07.263Z,2.60
2018-07-26T00:12:35.460Z,2.60
2018-07-26T00:15:03.724Z,2.37
2018-07-26T00:17:31.855Z,2.43
2018-07-26T00:20:00.076Z,2.60
2018-07-26T00:22:28.155Z,2.30
2018-07-26T00:24:56.255Z,2.90
2018-07-26T00:27:24.415Z,2.40
2018-07-26T00:29:52.475Z,3.30
2018-07-26T00:32:20.560Z,4.97
2018-07-26T00:34:48.628Z,2.70
2018-07-26T00:37:16.771Z,3.17
2018-07-26T00:39:44.926Z,3.33
2018-07-26T00:42:12.999Z,3.13
2018-07-26T00:44:41.104Z,4.67
2018-07-26T00:47:09.183Z,3.20
2018-07-26T00:49:37.270Z,5.07
2018-07-26T00:52:05.342Z,3.30
2018-07-26T00:54:33.415Z,2.63
2018-07-26T00:57:01.518Z,2.43
2018-07-26T00:59:29.744Z,2.80
2018-07-26T01:01:57.986Z,2.60
2018-07-26T01:04:26.087Z,2.57
2018-07-26T01:06:54.159Z,2.50
2018-07-26T01:09:22.224Z,2.80
2018-07-26T01:11:50.316Z,2.70
2018-07-26T01:14:18.427Z,2.13
2018-07-26T01:16:46.516Z,2.27
2018-07-26T01:19:14.586Z,2.93
2018-07-26T01:21:42.697Z,2.13
2018-07-26T01:24:10.777Z,2.10
2018-07-26T01:26:38.854Z,2.30
2018-07-26T01:29:06.955Z,3.33
2018-07-26T01:31:35.090Z,2.40
2018-07-26T01:34:03.167Z,2.30
2018-07-26T01:36:31.331Z,2.50
2018-07-26T01:38:59.423Z,2.60
2018-07-26T01:41:27.517Z,2.53
2018-07-26T01:44:06.959Z,2.70
2018-07-26T01:46:35.051Z,2.90
2018-07-26T01:49:03.163Z,2.33
2018-07-26T01:51:31.246Z,2.53
2018-07-26T01:53:59.399Z,2.70
2018-07-26T01:56:27.591Z,2.90
2018-07-26T01:58:55.654Z,2.50
2018-07-26T02:01:23.741Z,2.57
2018-07-26T02:03:51.844Z,2.90
2018-07-26T02:06:20.022Z,3.23
2018-07-26T02:08:48.134Z,2.27
2018-07-26T02:11:16.222Z,2.50
2018-07-26T02:13:44.372Z,2.87
2018-07-26T02:16:12.463Z,3.00
2018-07-26T02:18:40.762Z,2.67
2018-07-26T02:21:08.863Z,2.63
2018-07-26T02:23:37.032Z,2.60
2018-07-26T02:26:05.155Z,3.37
2018-07-26T02:28:33.231Z,2.83
2018-07-26T02:31:01.441Z,3.03
2018-07-26T02:33:29.486Z,3.37
2018-07-26T02:35:57.602Z,3.23
2018-07-26T02:38:25.688Z,2.20
2018-07-26T02:40:53.759Z,2.87
2018-07-26T02:43:21.864Z,2.37
2018-07-26T02:45:49.900Z,2.57
2018-07-26T02:48:17.993Z,2.40
2018-07-26T02:50:46.095Z,2.80
2018-07-26T02:53:14.262Z,2.90
2018-07-26T02:55:42.339Z,3.13
2018-07-26T02:58:10.423Z,2.57
2018-07-26T03:00:38.501Z,3.07
2018-07-26T03:03:06.580Z,3.17
2018-07-26T03:05:34.679Z,2.50
2018-07-26T03:08:02.783Z,2.50
2018-07-26T03:10:30.867Z,2.93
2018-07-26T03:12:58.954Z,2.20
2018-07-26T03:15:27.027Z,3.03
2018-07-26T03:17:55.107Z,2.90
2018-07-26T03:20:23.182Z,2.80
2018-07-26T03:22:51.289Z,2.80
2018-07-26T03:25:19.347Z,2.80
2018-07-26T03:27:47.412Z,2.40
2018-07-26T03:30:15.490Z,2.17
2018-07-26T03:32:43.576Z,2.50
2018-07-26T03:35:11.653Z,2.90
2018-07-26T03:37:39.776Z,2.50
2018-07-26T03:40:07.863Z,2.23
2018-07-26T03:42:35.971Z,2.40
2018-07-26T03:45:04.101Z,2.70
2018-07-26T03:47:32.190Z,2.40
2018-07-26T03:50:00.263Z,2.80
2018-07-26T03:52:28.383Z,2.37
2018-07-26T03:54:56.448Z,2.53
2018-07-26T03:57:24.539Z,3.00
2018-07-26T03:59:52.638Z,2.47
2018-07-26T04:02:20.784Z,2.77
2018-07-26T04:04:48.859Z,1.60
2018-07-26T04:07:16.986Z,2.67
2018-07-26T04:09:45.082Z,2.47
2018-07-26T04:12:13.151Z,2.33
2018-07-26T04:14:41.272Z,2.13
2018-07-26T04:17:09.359Z,2.63
2018-07-26T04:19:37.435Z,2.20
2018-07-26T04:22:05.547Z,2.77
2018-07-26T04:24:33.623Z,2.87
2018-07-26T04:27:01.742Z,3.10
2018-07-26T04:29:29.839Z,2.50
2018-07-26T04:31:58.007Z,2.73
2018-07-26T04:34:26.042Z,3.00
2018-07-26T04:36:54.179Z,2.47
2018-07-26T04:39:22.327Z,2.67
2018-07-26T04:41:50.414Z,2.53
2018-07-26T04:44:18.475Z,2.40
2018-07-26T04:46:46.561Z,2.30
2018-07-26T04:49:14.666Z,2.50
2018-07-26T04:51:42.798Z,2.17
2018-07-26T04:54:10.883Z,2.40
2018-07-26T04:56:39.001Z,2.20
2018-07-26T04:59:07.075Z,2.47
2018-07-26T05:01:35.182Z,2.67
2018-07-26T05:04:03.349Z,2.37
2018-07-26T05:06:31.543Z,2.50
2018-07-26T05:08:59.625Z,2.93
2018-07-26T05:11:27.718Z,3.17
2018-07-26T05:13:55.838Z,3.50
2018-07-26T05:16:23.938Z,2.40
2018-07-26T05:18:52.157Z,2.20
2018-07-26T05:21:20.257Z,2.50
2018-07-26T05:23:48.367Z,2.37
2018-07-26T05:26:16.427Z,2.23
2018-07-26T05:28:44.674Z,3.07
2018-07-26T05:31:12.747Z,3.37
2018-07-26T05:33:40.862Z,2.20
2018-07-26T05:36:08.928Z,2.30
2018-07-26T05:38:37.035Z,2.30
2018-07-26T05:41:05.108Z,2.10
2018-07-26T05:43:33.208Z,2.70
2018-07-26T05:46:01.300Z,2.60
2018-07-26T05:48:29.404Z,2.43
2018-07-26T05:50:57.533Z,2.30
2018-07-26T05:53:25.663Z,2.50
2018-07-26T05:55:53.689Z,2.43
2018-07-26T05:58:21.838Z,2.30
2018-07-26T06:00:49.905Z,2.27
2018-07-26T06:03:18.015Z,2.47
2018-07-26T06:05:46.110Z,2.60
2018-07-26T06:08:14.214Z,2.30
2018-07-26T06:10:42.290Z,2.77
2018-07-26T06:13:10.451Z,2.60
2018-07-26T06:15:38.555Z,2.47
2018-07-26T06:18:06.637Z,2.70
2018-07-26T06:20:34.762Z,3.60
2018-07-26T06:23:02.910Z,2.20
2018-07-26T06:25:31.071Z,2.27
2018-07-26T06:27:59.154Z,2.60
2018-07-26T06:30:27.228Z,2.90
2018-07-26T06:32:57.792Z,2.40
2018-07-26T06:35:26.003Z,2.93
2018-07-26T06:37:54.972Z,2.67
2018-07-26T06:40:23.124Z,2.53
2018-07-26T06:42:51.269Z,2.30
2018-07-26T06:45:19.448Z,2.40
2018-07-26T06:47:47.820Z,2.47
2018-07-26T06:50:16.414Z,3.10
2018-07-26T06:52:45.124Z,2.67
2018-07-26T06:55:13.300Z,2.67
2018-07-26T06:57:41.550Z,3.60
2018-07-26T07:00:10.172Z,2.57
2018-07-26T07:02:38.626Z,2.30
2018-07-26T07:05:06.722Z,2.70
2018-07-26T07:07:34.814Z,2.83
2018-07-26T07:10:02.944Z,2.73
2018-07-26T07:12:31.136Z,2.50
2018-07-26T07:14:59.391Z,2.60
2018-07-26T07:17:27.668Z,2.70
2018-07-26T07:19:55.793Z,2.30
2018-07-26T07:22:23.959Z,2.53
2018-07-26T07:24:52.053Z,3.30
2018-07-26T07:27:20.151Z,2.50
2018-07-26T07:29:48.244Z,2.20
2018-07-26T07:32:16.379Z,2.80
2018-07-26T07:34:44.510Z,2.37
2018-07-26T07:37:12.698Z,2.93
2018-07-26T07:39:40.803Z,3.00
2018-07-26T07:42:08.882Z,2.90
2018-07-26T07:44:37.277Z,2.57
2018-07-26T07:47:05.692Z,2.77
2018-07-26T07:49:33.808Z,3.97
2018-07-26T07:52:01.973Z,4.00
2018-07-26T07:54:30.126Z,3.27
2018-07-26T07:56:58.199Z,3.63
2018-07-26T07:59:26.313Z,3.90
2018-07-26T08:01:54.362Z,4.70
2018-07-26T08:04:22.547Z,4.13
2018-07-26T08:06:50.923Z,3.77
2018-07-26T08:09:18.999Z,2.83
2018-07-26T08:11:47.080Z,3.03
2018-07-26T08:14:15.151Z,3.57
2018-07-26T08:16:43.351Z,2.90
2018-07-26T08:19:11.473Z,3.00
2018-07-26T08:21:39.579Z,3.40
2018-07-26T08:24:07.723Z,3.53
2018-07-26T08:26:35.771Z,3.87
2018-07-26T08:29:03.865Z,3.70
2018-07-26T08:31:31.931Z,3.67
2018-07-26T08:34:00.024Z,3.70
2018-07-26T08:36:28.141Z,5.00
2018-07-26T08:38:56.302Z,3.70
2018-07-26T08:41:24.414Z,3.53
2018-07-26T08:43:52.498Z,3.47
2018-07-26T08:46:20.558Z,3.33
2018-07-26T08:48:48.650Z,2.90
2018-07-26T08:51:16.790Z,2.90
2018-07-26T08:53:45.111Z,3.10
2018-07-26T08:56:16.564Z,2.90
2018-07-26T08:58:45.098Z,3.50
2018-07-26T09:01:14.310Z,3.97
2018-07-26T09:03:42.384Z,3.20
2018-07-26T09:06:11.060Z,3.07
2018-07-26T09:11:42.329Z,4.00
2018-07-26T09:14:11.701Z,3.40
2018-07-26T09:16:39.787Z,2.80
2018-07-26T09:19:08.292Z,3.00
2018-07-26T09:21:36.442Z,3.13
2018-07-26T09:24:06.691Z,3.27
2018-07-26T09:26:34.747Z,2.80
2018-07-26T09:29:02.899Z,2.93
2018-07-26T09:31:30.951Z,3.10
2018-07-26T09:33:59.087Z,3.47
2018-07-26T09:36:28.238Z,3.23
2018-07-26T09:38:56.675Z,2.57
2018-07-26T09:41:24.952Z,2.90
2018-07-26T09:43:53.023Z,3.47
2018-07-26T09:46:21.444Z,2.90
2018-07-26T09:48:49.527Z,2.53
2018-07-26T09:51:17.570Z,2.37
2018-07-26T09:53:45.880Z,2.27
2018-07-26T09:56:13.940Z,2.40
2018-07-26T09:58:42.046Z,2.47
2018-07-26T10:01:16.331Z,2.53
2018-07-26T10:03:44.408Z,2.23
2018-07-26T10:06:12.500Z,2.17
2018-07-26T10:08:40.579Z,2.03
2018-07-26T10:11:08.664Z,2.47
2018-07-26T10:13:36.808Z,2.17
2018-07-26T10:16:04.978Z,2.87
2018-07-26T10:18:33.036Z,2.27
2018-07-26T10:21:01.184Z,2.93
2018-07-26T10:23:29.406Z,2.60
2018-07-26T10:25:57.511Z,1.80
2018-07-26T10:28:26.823Z,2.60
2018-07-26T10:30:54.894Z,3.50
2018-07-26T10:33:23.083Z,2.80
2018-07-26T10:35:51.155Z,2.27
2018-07-26T10:38:19.197Z,2.47
2018-07-26T10:40:47.261Z,2.47
2018-07-26T10:43:15.450Z,2.50
2018-07-26T10:45:43.500Z,2.90
2018-07-26T10:48:11.606Z,2.30
2018-07-26T10:50:39.692Z,2.27
2018-07-26T10:53:07.748Z,2.60
2018-07-26T10:55:35.825Z,2.33
2018-07-26T10:58:03.877Z,2.27
2018-07-26T11:00:31.995Z,2.47
2018-07-26T11:03:00.104Z,2.00
2018-07-26T11:05:28.259Z,2.10
2018-07-26T11:07:56.322Z,2.17
2018-07-26T11:10:24.402Z,3.00
2018-07-26T11:12:52.459Z,2.70
2018-07-26T11:15:25.906Z,2.30
2018-07-26T11:17:54.039Z,1.90
2018-07-26T11:20:22.186Z,1.90
2018-07-26T11:22:50.371Z,1.97
2018-07-26T11:25:18.527Z,2.03
2018-07-26T11:27:46.908Z,1.80
2018-07-26T11:30:14.994Z,2.80
2018-07-26T11:32:43.054Z,1.90
2018-07-26T11:35:11.872Z,2.10
2018-07-26T11:37:39.966Z,2.20
2018-07-26T11:40:08.016Z,1.73
2018-07-26T11:42:36.071Z,2.10
2018-07-26T11:45:04.892Z,1.77
2018-07-26T11:47:32.950Z,2.30
2018-07-26T11:50:01.106Z,2.10
2018-07-26T11:52:29.238Z,2.30
2018-07-26T11:54:57.288Z,2.40
2018-07-26T11:57:25.453Z,2.10
2018-07-26T11:59:53.577Z,2.30
2018-07-26T12:02:21.755Z,2.07
2018-07-26T12:04:49.780Z,2.33
2018-07-26T12:07:17.831Z,2.27
2018-07-26T12:09:45.886Z,2.57
2018-07-26T12:12:13.964Z,2.27
2018-07-26T12:14:42.096Z,2.33
2018-07-26T12:17:10.427Z,1.83
2018-07-26T12:19:39.047Z,2.60
2018-07-26T12:22:07.575Z,2.27
2018-07-26T12:24:35.646Z,2.50
2018-07-26T12:27:04.022Z,2.23
2018-07-26T12:29:32.210Z,2.10
2018-07-26T12:32:00.444Z,2.70
2018-07-26T12:34:28.493Z,2.50
2018-07-26T12:36:58.438Z,2.70
2018-07-26T12:39:26.664Z,2.17
2018-07-26T12:41:54.778Z,1.70
2018-07-26T12:44:23.817Z,3.00
2018-07-26T12:46:52.240Z,1.90
2018-07-26T12:49:21.900Z,1.80
2018-07-26T12:51:50.257Z,2.37
2018-07-26T12:54:19.157Z,1.90
2018-07-26T12:56:47.491Z,1.70
2018-07-26T12:59:16.087Z,1.50
2018-07-26T13:01:44.983Z,1.47
2018-07-26T13:04:14.765Z,1.30
2018-07-26T13:06:44.496Z,1.80
2018-07-26T13:09:17.527Z,1.63
2018-07-26T13:11:45.816Z,1.63
2018-07-26T13:14:13.979Z,1.73
2018-07-26T13:16:42.211Z,1.83
2018-07-26T13:19:10.599Z,1.30
2018-07-26T13:21:40.306Z,1.60
2018-07-26T13:24:09.695Z,2.03
2018-07-26T13:26:37.892Z,2.10
2018-07-26T13:29:07.058Z,1.90
2018-07-26T13:31:35.888Z,1.47
2018-07-26T13:34:04.118Z,1.50
2018-07-26T13:36:32.299Z,1.33
2018-07-26T13:39:01.779Z,1.47
2018-07-26T13:41:30.738Z,1.40
2018-07-26T13:43:59.928Z,1.70
2018-07-26T13:46:28.055Z,1.67
2018-07-26T13:48:56.990Z,1.60
2018-07-26T13:51:26.744Z,1.60
2018-07-26T13:53:55.608Z,1.70
2018-07-26T13:56:23.826Z,1.80
2018-07-26T13:58:56.319Z,1.70
2018-07-26T14:01:24.484Z,1.73
2018-07-26T14:03:53.051Z,1.67
2018-07-26T14:06:21.143Z,1.53
2018-07-26T14:08:55.140Z,1.30
2018-07-26T14:11:23.591Z,1.70
2018-07-26T14:13:52.709Z,1.70
2018-07-26T14:16:20.966Z,1.97
2018-07-26T14:18:49.073Z,1.60
2018-07-26T14:21:18.108Z,1.53
2018-07-26T14:23:46.440Z,2.27
2018-07-26T14:26:14.817Z,1.97
2018-07-26T14:28:42.988Z,2.00
2018-07-26T14:31:12.486Z,1.60
2018-07-26T14:33:41.430Z,2.00
2018-07-26T14:36:10.341Z,2.00
2018-07-26T14:38:38.395Z,1.77
2018-07-26T14:41:06.570Z,2.00
2018-07-26T14:43:34.664Z,1.63
2018-07-26T14:46:02.715Z,1.50
2018-07-26T14:48:30.787Z,2.10
2018-07-26T14:50:58.959Z,1.80
2018-07-26T14:53:27.358Z,3.47
2018-07-26T14:55:55.438Z,1.67
2018-07-26T14:58:23.558Z,1.37
2018-07-26T15:00:51.616Z,1.50
2018-07-26T15:03:19.780Z,1.60
2018-07-26T15:05:50.169Z,1.73
2018-07-26T15:08:20.291Z,1.80
2018-07-26T15:10:53.301Z,2.00
2018-07-26T15:13:21.791Z,1.53
2018-07-26T15:15:50.093Z,1.63
2018-07-26T15:18:19.092Z,1.93
2018-07-26T15:20:47.278Z,1.70
2018-07-26T15:23:15.944Z,1.63
2018-07-26T15:25:44.210Z,2.10
2018-07-26T15:28:12.448Z,1.40
2018-07-26T15:30:41.328Z,1.90
2018-07-26T15:33:09.533Z,2.10
2018-07-26T15:35:37.654Z,1.90
2018-07-26T15:38:05.997Z,1.63
2018-07-26T15:40:34.557Z,1.90
2018-07-26T15:43:03.180Z,1.73
2018-07-26T15:45:31.371Z,1.40
2018-07-26T15:47:59.514Z,2.23
2018-07-26T15:50:27.905Z,2.00
2018-07-26T15:52:56.682Z,1.63
2018-07-26T15:55:26.043Z,1.90
2018-07-26T15:57:54.166Z,1.30
2018-07-26T16:00:22.302Z,1.33
2018-07-26T16:02:51.154Z,1.57
2018-07-26T16:05:19.249Z,1.37
2018-07-26T16:07:47.267Z,1.77
2018-07-26T16:10:15.321Z,1.60
2018-07-26T16:12:43.371Z,1.83
2018-07-26T16:15:11.793Z,1.73
2018-07-26T16:17:40.074Z,1.50
2018-07-26T16:20:09.123Z,1.50
2018-07-26T16:22:37.187Z,2.03
2018-07-26T16:25:06.339Z,1.60
2018-07-26T16:27:34.415Z,2.87
2018-07-26T16:30:02.559Z,2.10
2018-07-26T16:32:30.674Z,2.30
2018-07-26T16:34:58.720Z,2.40
2018-07-26T16:37:26.794Z,2.23
2018-07-26T16:39:54.910Z,2.20
2018-07-26T16:42:22.967Z,2.77
2018-07-26T16:44:51.131Z,3.13
2018-07-26T16:47:19.186Z,2.43
2018-07-26T16:49:47.281Z,1.63
2018-07-26T16:52:15.369Z,2.30
2018-07-26T16:54:43.435Z,1.77
2018-07-26T16:57:11.516Z,2.10
2018-07-26T16:59:39.612Z,2.60
2018-07-26T17:02:07.695Z,2.07
2018-07-26T17:04:36.728Z,2.00
2018-07-26T17:07:04.853Z,2.10
2018-07-26T17:09:33.107Z,2.47
2018-07-26T17:12:01.241Z,2.30
2018-07-26T17:14:29.323Z,1.77
2018-07-26T17:16:57.391Z,1.93
2018-07-26T17:19:25.470Z,2.30
2018-07-26T17:21:53.533Z,2.10
2018-07-26T17:24:21.617Z,2.20
2018-07-26T17:26:49.690Z,2.20
2018-07-26T17:29:17.815Z,2.00
2018-07-26T17:31:45.891Z,2.07
2018-07-26T17:34:13.959Z,2.30
2018-07-26T17:36:42.033Z,2.33
2018-07-26T17:39:11.262Z,1.70
2018-07-26T17:41:39.491Z,2.23
2018-07-26T17:44:07.582Z,2.30
2018-07-26T17:46:35.759Z,2.13
2018-07-26T17:49:03.895Z,2.20
2018-07-26T17:51:32.206Z,2.00
2018-07-26T17:54:00.280Z,2.00
2018-07-26T17:56:28.450Z,2.00
2018-07-26T17:58:56.523Z,2.53
2018-07-26T18:01:24.620Z,2.50
2018-07-26T18:03:52.857Z,2.20
2018-07-26T18:06:20.912Z,2.33
2018-07-26T18:08:48.983Z,2.30
2018-07-26T18:11:17.052Z,1.90
2018-07-26T18:13:45.167Z,2.07
2018-07-26T18:16:13.166Z,2.13
2018-07-26T18:18:41.291Z,2.60
2018-07-26T18:21:09.342Z,3.00
2018-07-26T18:23:38.408Z,2.50
2018-07-26T18:26:06.932Z,2.30
2018-07-26T18:28:35.022Z,2.37
2018-07-26T18:31:03.455Z,2.33
2018-07-26T18:33:31.673Z,2.43
2018-07-26T18:35:59.752Z,2.23
2018-07-26T18:38:27.923Z,3.00
2018-07-26T18:40:56.000Z,2.27
2018-07-26T18:43:24.417Z,2.80
2018-07-26T18:45:52.537Z,2.07
2018-07-26T18:48:20.785Z,2.67
2018-07-26T18:50:48.907Z,2.00
2018-07-26T18:53:18.250Z,2.53
2018-07-26T18:55:46.366Z,2.77
2018-07-26T18:58:15.242Z,2.80
2018-07-26T19:00:44.023Z,2.20
2018-07-26T19:03:12.225Z,2.30
2018-07-26T19:05:41.212Z,2.40
2018-07-26T19:08:09.975Z,2.63
2018-07-26T19:10:39.427Z,2.50
2018-07-26T19:13:07.554Z,2.20
2018-07-26T19:15:35.760Z,2.70
2018-07-26T19:18:04.188Z,2.40
2018-07-26T19:20:33.034Z,2.60
2018-07-26T19:23:02.260Z,2.77
2018-07-26T19:25:32.267Z,2.57
2018-07-26T19:28:00.763Z,2.20
2018-07-26T19:30:30.131Z,2.60
2018-07-26T19:32:59.120Z,2.17
2018-07-26T19:35:54.280Z,3.47
2018-07-26T19:38:22.423Z,2.97
2018-07-26T19:40:50.560Z,3.30
2018-07-26T19:43:19.972Z,2.70
2018-07-26T19:45:48.123Z,2.20
2018-07-26T19:48:16.588Z,2.60
2018-07-26T19:50:44.893Z,2.63
2018-07-26T19:53:13.079Z,2.87
2018-07-26T19:55:41.305Z,2.77
2018-07-26T19:58:10.903Z,3.00
2018-07-26T20:00:39.414Z,2.63
2018-07-26T20:03:08.749Z,2.93
2018-07-26T20:05:37.212Z,2.97
2018-07-26T20:08:05.380Z,2.37
2018-07-26T20:10:33.541Z,2.50
2018-07-26T20:13:01.646Z,3.10
2018-07-26T20:15:30.538Z,2.57
2018-07-26T20:17:59.890Z,2.97
2018-07-26T20:20:28.017Z,2.53
2018-07-26T20:22:56.142Z,2.90
2018-07-26T20:25:25.727Z,3.13
2018-07-26T20:27:53.810Z,2.30
2018-07-26T20:30:21.952Z,2.60
2018-07-26T20:32:50.342Z,2.50
2018-07-26T20:35:19.004Z,2.90
2018-07-26T20:37:47.395Z,2.43
2018-07-26T20:40:15.573Z,2.93
2018-07-26T20:42:43.937Z,2.90
2018-07-26T20:45:14.244Z,3.20
2018-07-26T20:47:42.357Z,2.77
2018-07-26T20:50:11.491Z,2.40
2018-07-26T20:52:39.738Z,3.13
2018-07-26T20:55:08.090Z,2.33
2018-07-26T20:57:37.387Z,2.47
2018-07-26T21:00:08.856Z,2.43
2018-07-26T21:02:36.977Z,2.60
2018-07-26T21:05:06.501Z,2.87
2018-07-26T21:07:34.666Z,2.80
2018-07-26T21:10:03.931Z,2.57
2018-07-26T21:12:32.424Z,2.60
2018-07-26T21:15:00.513Z,3.07
2018-07-26T21:17:29.108Z,2.50
2018-07-26T21:19:58.199Z,2.60
2018-07-26T21:22:27.055Z,2.57
2018-07-26T21:24:55.496Z,3.10
2018-07-26T21:27:23.563Z,3.07
2018-07-26T21:29:51.732Z,2.70
2018-07-26T21:32:19.815Z,2.30
2018-07-26T21:34:48.368Z,2.77
2018-07-26T21:37:16.589Z,3.40
2018-07-26T21:39:44.826Z,2.73
2018-07-26T21:42:13.037Z,3.87
2018-07-26T21:44:42.197Z,2.63
2018-07-26T21:47:10.449Z,2.90
2018-07-26T21:49:39.745Z,3.10
2018-07-26T21:52:07.858Z,2.87
2018-07-26T21:54:35.986Z,2.73
2018-07-26T21:57:05.046Z,3.23
2018-07-26T21:59:33.551Z,2.80
2018-07-26T22:02:01.970Z,2.77
2018-07-26T22:04:30.036Z,3.07
2018-07-26T22:06:58.183Z,2.30
2018-07-26T22:09:26.603Z,2.77
2018-07-26T22:11:55.667Z,2.73
2018-07-26T22:14:24.891Z,2.50
2018-07-26T22:16:53.114Z,3.13
2018-07-26T22:19:21.472Z,3.33
2018-07-26T22:21:49.672Z,2.80
2018-07-26T22:24:17.795Z,3.30
2018-07-26T22:26:46.781Z,2.40
2018-07-26T22:29:14.892Z,2.90
2018-07-26T22:31:42.993Z,2.90
2018-07-26T22:34:11.117Z,2.60
2018-07-26T22:36:39.342Z,2.77
2018-07-26T22:39:09.428Z,2.50
2018-07-26T22:41:38.404Z,2.70
2018-07-26T22:44:06.465Z,3.03
2018-07-26T22:46:34.515Z,3.27
2018-07-26T22:49:02.589Z,2.80
2018-07-26T22:51:30.676Z,2.53
2018-07-26T22:53:58.753Z,3.10
2018-07-26T22:56:26.811Z,2.90
2018-07-26T22:58:55.015Z,3.20
2018-07-26T23:01:23.143Z,2.87
2018-07-26T23:03:51.212Z,3.00
2018-07-26T23:06:20.251Z,3.00
2018-07-26T23:08:48.329Z,2.80
2018-07-26T23:11:16.400Z,4.00
2018-07-26T23:13:44.447Z,4.20
2018-07-26T23:16:12.510Z,3.47
2018-07-26T23:18:40.576Z,3.30
2018-07-26T23:21:08.720Z,3.07
2018-07-26T23:23:36.782Z,2.63
2018-07-26T23:26:04.848Z,3.00
2018-07-26T23:28:32.898Z,3.90
2018-07-26T23:31:00.974Z,2.23
2018-07-26T23:33:29.045Z,2.80
2018-07-26T23:35:57.139Z,2.67
2018-07-26T23:38:25.193Z,3.13
2018-07-26T23:40:53.260Z,3.10
2018-07-26T23:43:21.415Z,2.67
2018-07-26T23:45:49.484Z,3.13
2018-07-26T23:48:17.899Z,3.10
2018-07-26T23:50:47.347Z,3.00
2018-07-26T23:53:15.431Z,3.40
2018-07-26T23:55:43.497Z,3.10
2018-07-26T23:58:11.575Z,3.33
